Terminal Aerodrome Forecast
Issued by NWS Wilmington, OH

Current Version | Previous Version | Text Only | Print | Product List | Glossary Off
Versions: 1 2 3 4 5 6 7 8 9 10 11 12 13 14 15 16 17 18 19 20 21 22 23 24 25 26 27 28 29 30 31 32 33 34

803
FTUS41 KILN 240534
TAFILN
TAF
KILN 240534Z 2406/2506 26006KT P6SM SKC
     FM240800 00000KT 3SM BR SKC
      TEMPO 2409/2412 1SM BR SCT003
     FM241300 28009KT P6SM SKC
     FM241600 28013G20KT P6SM SCT040
      TEMPO 2416/2420 BKN040
     FM250200 27005KT P6SM FEW040=

USA.gov is the U.S. government's official web portal to all federal, state and local government web resources and services.